sensor_id;sensor_type;location;lat;lon;timestamp;P1;durP1;ratioP1;P2;durP2;ratioP2
77520;SDS011;66633;47.628;19.158;2023-09-08T00:01:06;10.90;;;7.10;;
77520;SDS011;66633;47.628;19.158;2023-09-08T00:03:32;9.75;;;6.53;;
77520;SDS011;66633;47.628;19.158;2023-09-08T00:05:57;10.07;;;6.15;;
77520;SDS011;66633;47.628;19.158;2023-09-08T00:08:22;10.48;;;6.68;;
77520;SDS011;66633;47.628;19.158;2023-09-08T00:10:49;11.57;;;6.78;;
77520;SDS011;66633;47.628;19.158;2023-09-08T00:13:14;11.25;;;6.68;;
77520;SDS011;66633;47.628;19.158;2023-09-08T00:15:40;9.82;;;5.88;;
77520;SDS011;66633;47.628;19.158;2023-09-08T00:18:05;9.70;;;5.72;;
77520;SDS011;66633;47.628;19.158;2023-09-08T00:20:31;10.35;;;6.55;;
77520;SDS011;66633;47.628;19.158;2023-09-08T00:22:56;9.68;;;6.70;;
77520;SDS011;66633;47.628;19.158;2023-09-08T00:25:21;10.07;;;6.65;;
77520;SDS011;66633;47.628;19.158;2023-09-08T00:27:47;10.48;;;6.85;;
77520;SDS011;66633;47.628;19.158;2023-09-08T00:30:12;10.35;;;6.50;;
77520;SDS011;66633;47.628;19.158;2023-09-08T00:32:38;9.25;;;5.68;;
77520;SDS011;66633;47.628;19.158;2023-09-08T00:35:05;9.15;;;6.25;;
77520;SDS011;66633;47.628;19.158;2023-09-08T00:37:33;9.40;;;5.90;;
77520;SDS011;66633;47.628;19.158;2023-09-08T00:39:58;9.20;;;5.82;;
77520;SDS011;66633;47.628;19.158;2023-09-08T00:42:23;9.75;;;6.10;;
77520;SDS011;66633;47.628;19.158;2023-09-08T00:44:49;11.15;;;6.10;;
77520;SDS011;66633;47.628;19.158;2023-09-08T00:47:14;9.15;;;5.43;;
77520;SDS011;66633;47.628;19.158;2023-09-08T00:49:40;9.05;;;5.80;;
77520;SDS011;66633;47.628;19.158;2023-09-08T00:52:05;9.18;;;6.35;;
77520;SDS011;66633;47.628;19.158;2023-09-08T00:54:31;9.05;;;5.22;;
77520;SDS011;66633;47.628;19.158;2023-09-08T00:56:56;10.63;;;5.97;;
77520;SDS011;66633;47.628;19.158;2023-09-08T00:59:22;9.52;;;6.10;;
77520;SDS011;66633;47.628;19.158;2023-09-08T01:01:48;8.65;;;5.70;;
77520;SDS011;66633;47.628;19.158;2023-09-08T01:04:13;8.65;;;5.88;;
77520;SDS011;66633;47.628;19.158;2023-09-08T01:06:38;9.20;;;5.57;;
77520;SDS011;66633;47.628;19.158;2023-09-08T01:09:04;11.07;;;6.65;;
77520;SDS011;66633;47.628;19.158;2023-09-08T01:11:30;9.25;;;6.55;;
77520;SDS011;66633;47.628;19.158;2023-09-08T01:13:56;10.80;;;6.47;;
77520;SDS011;66633;47.628;19.158;2023-09-08T01:16:22;10.55;;;6.85;;
77520;SDS011;66633;47.628;19.158;2023-09-08T01:18:47;8.98;;;5.88;;
77520;SDS011;66633;47.628;19.158;2023-09-08T01:27:01;10.20;;;6.53;;
77520;SDS011;66633;47.628;19.158;2023-09-08T01:29:26;9.68;;;6.95;;
77520;SDS011;66633;47.628;19.158;2023-09-08T01:31:54;10.90;;;6.93;;
77520;SDS011;66633;47.628;19.158;2023-09-08T01:34:21;11.82;;;7.10;;
77520;SDS011;66633;47.628;19.158;2023-09-08T01:36:46;13.50;;;8.02;;
77520;SDS011;66633;47.628;19.158;2023-09-08T01:39:12;11.38;;;8.27;;
77520;SDS011;66633;47.628;19.158;2023-09-08T01:41:37;13.00;;;7.95;;
77520;SDS011;66633;47.628;19.158;2023-09-08T01:44:03;11.73;;;7.78;;
77520;SDS011;66633;47.628;19.158;2023-09-08T01:46:33;12.18;;;7.18;;
77520;SDS011;66633;47.628;19.158;2023-09-08T01:48:58;9.88;;;6.85;;
77520;SDS011;66633;47.628;19.158;2023-09-08T01:51:24;9.85;;;6.15;;
77520;SDS011;66633;47.628;19.158;2023-09-08T01:53:49;12.77;;;6.85;;
77520;SDS011;66633;47.628;19.158;2023-09-08T01:56:14;9.57;;;6.55;;
77520;SDS011;66633;47.628;19.158;2023-09-08T01:58:40;9.55;;;6.35;;
77520;SDS011;66633;47.628;19.158;2023-09-08T02:01:05;9.23;;;5.80;;
77520;SDS011;66633;47.628;19.158;2023-09-08T02:03:33;9.52;;;6.18;;
77520;SDS011;66633;47.628;19.158;2023-09-08T02:05:59;11.55;;;6.93;;
77520;SDS011;66633;47.628;19.158;2023-09-08T02:08:24;8.93;;;5.95;;
77520;SDS011;66633;47.628;19.158;2023-09-08T02:10:50;9.32;;;6.03;;
77520;SDS011;66633;47.628;19.158;2023-09-08T02:13:15;10.77;;;7.10;;
77520;SDS011;66633;47.628;19.158;2023-09-08T02:15:41;10.05;;;6.63;;
77520;SDS011;66633;47.628;19.158;2023-09-08T02:18:06;10.63;;;6.28;;
77520;SDS011;66633;47.628;19.158;2023-09-08T02:20:32;10.18;;;6.22;;
77520;SDS011;66633;47.628;19.158;2023-09-08T02:22:58;12.15;;;6.95;;
77520;SDS011;66633;47.628;19.158;2023-09-08T02:25:29;10.27;;;6.45;;
77520;SDS011;66633;47.628;19.158;2023-09-08T02:27:55;10.02;;;6.60;;
77520;SDS011;66633;47.628;19.158;2023-09-08T02:30:20;8.98;;;5.53;;
77520;SDS011;66633;47.628;19.158;2023-09-08T02:32:46;10.10;;;5.95;;
77520;SDS011;66633;47.628;19.158;2023-09-08T02:35:11;10.65;;;6.80;;
77520;SDS011;66633;47.628;19.158;2023-09-08T02:37:36;10.23;;;6.43;;
77520;SDS011;66633;47.628;19.158;2023-09-08T02:40:02;10.38;;;6.60;;
77520;SDS011;66633;47.628;19.158;2023-09-08T02:42:28;11.63;;;7.35;;
77520;SDS011;66633;47.628;19.158;2023-09-08T02:44:54;11.98;;;7.72;;
77520;SDS011;66633;47.628;19.158;2023-09-08T02:47:19;12.88;;;7.75;;
77520;SDS011;66633;47.628;19.158;2023-09-08T02:49:44;10.45;;;7.10;;
77520;SDS011;66633;47.628;19.158;2023-09-08T02:52:10;12.27;;;7.25;;
77520;SDS011;66633;47.628;19.158;2023-09-08T02:54:35;13.93;;;7.93;;
77520;SDS011;66633;47.628;19.158;2023-09-08T02:57:01;10.85;;;7.22;;
77520;SDS011;66633;47.628;19.158;2023-09-08T02:59:26;11.93;;;7.20;;
77520;SDS011;66633;47.628;19.158;2023-09-08T03:01:52;11.77;;;7.05;;
77520;SDS011;66633;47.628;19.158;2023-09-08T03:04:17;11.02;;;7.50;;
77520;SDS011;66633;47.628;19.158;2023-09-08T03:06:42;10.98;;;6.88;;
77520;SDS011;66633;47.628;19.158;2023-09-08T03:09:08;10.73;;;7.18;;
77520;SDS011;66633;47.628;19.158;2023-09-08T03:11:33;11.23;;;7.40;;
77520;SDS011;66633;47.628;19.158;2023-09-08T03:13:59;12.57;;;7.05;;
77520;SDS011;66633;47.628;19.158;2023-09-08T03:16:24;9.98;;;6.75;;
77520;SDS011;66633;47.628;19.158;2023-09-08T03:18:50;13.18;;;7.40;;
77520;SDS011;66633;47.628;19.158;2023-09-08T03:21:15;12.82;;;7.25;;
77520;SDS011;66633;47.628;19.158;2023-09-08T03:23:41;11.77;;;7.63;;
77520;SDS011;66633;47.628;19.158;2023-09-08T03:26:08;10.75;;;7.13;;
77520;SDS011;66633;47.628;19.158;2023-09-08T03:28:35;11.60;;;7.55;;
77520;SDS011;66633;47.628;19.158;2023-09-08T03:31:01;11.43;;;7.60;;
77520;SDS011;66633;47.628;19.158;2023-09-08T03:33:27;10.65;;;7.13;;
77520;SDS011;66633;47.628;19.158;2023-09-08T03:35:53;10.73;;;7.57;;
77520;SDS011;66633;47.628;19.158;2023-09-08T03:38:18;10.77;;;6.95;;
77520;SDS011;66633;47.628;19.158;2023-09-08T03:40:44;10.80;;;7.60;;
77520;SDS011;66633;47.628;19.158;2023-09-08T03:43:09;11.73;;;7.40;;
77520;SDS011;66633;47.628;19.158;2023-09-08T03:45:35;11.18;;;7.10;;
77520;SDS011;66633;47.628;19.158;2023-09-08T03:48:00;11.20;;;6.85;;
77520;SDS011;66633;47.628;19.158;2023-09-08T03:50:26;9.85;;;6.75;;
77520;SDS011;66633;47.628;19.158;2023-09-08T03:52:51;11.57;;;7.13;;
77520;SDS011;66633;47.628;19.158;2023-09-08T03:55:18;10.52;;;6.80;;
77520;SDS011;66633;47.628;19.158;2023-09-08T03:57:44;10.95;;;6.47;;
77520;SDS011;66633;47.628;19.158;2023-09-08T04:00:09;10.07;;;6.57;;
77520;SDS011;66633;47.628;19.158;2023-09-08T04:02:42;9.40;;;6.40;;
77520;SDS011;66633;47.628;19.158;2023-09-08T04:05:07;9.13;;;6.07;;
77520;SDS011;66633;47.628;19.158;2023-09-08T04:07:35;9.95;;;6.85;;
77520;SDS011;66633;47.628;19.158;2023-09-08T04:10:00;11.00;;;6.47;;
77520;SDS011;66633;47.628;19.158;2023-09-08T04:12:26;11.35;;;7.03;;
77520;SDS011;66633;47.628;19.158;2023-09-08T04:14:52;10.70;;;6.50;;
77520;SDS011;66633;47.628;19.158;2023-09-08T04:17:17;11.65;;;7.57;;
77520;SDS011;66633;47.628;19.158;2023-09-08T04:19:43;13.75;;;7.55;;
77520;SDS011;66633;47.628;19.158;2023-09-08T04:22:08;13.30;;;7.63;;
77520;SDS011;66633;47.628;19.158;2023-09-08T04:24:35;12.20;;;7.68;;
77520;SDS011;66633;47.628;19.158;2023-09-08T04:27:01;12.68;;;7.25;;
77520;SDS011;66633;47.628;19.158;2023-09-08T04:29:27;10.55;;;6.97;;
77520;SDS011;66633;47.628;19.158;2023-09-08T04:31:52;12.27;;;7.32;;
77520;SDS011;66633;47.628;19.158;2023-09-08T04:34:17;12.18;;;7.55;;
77520;SDS011;66633;47.628;19.158;2023-09-08T04:36:43;12.70;;;7.75;;
77520;SDS011;66633;47.628;19.158;2023-09-08T04:39:08;11.13;;;7.15;;
77520;SDS011;66633;47.628;19.158;2023-09-08T04:41:36;11.48;;;7.28;;
77520;SDS011;66633;47.628;19.158;2023-09-08T04:44:01;12.70;;;7.80;;
77520;SDS011;66633;47.628;19.158;2023-09-08T04:46:27;11.25;;;7.32;;
77520;SDS011;66633;47.628;19.158;2023-09-08T04:48:53;10.52;;;7.15;;
77520;SDS011;66633;47.628;19.158;2023-09-08T04:51:19;11.82;;;7.68;;
77520;SDS011;66633;47.628;19.158;2023-09-08T04:53:44;11.80;;;7.32;;
77520;SDS011;66633;47.628;19.158;2023-09-08T04:56:10;12.70;;;7.85;;
77520;SDS011;66633;47.628;19.158;2023-09-08T04:58:35;11.25;;;7.78;;
77520;SDS011;66633;47.628;19.158;2023-09-08T05:01:01;11.88;;;7.68;;
77520;SDS011;66633;47.628;19.158;2023-09-08T05:03:26;13.00;;;7.47;;
77520;SDS011;66633;47.628;19.158;2023-09-08T05:05:51;12.05;;;7.57;;
77520;SDS011;66633;47.628;19.158;2023-09-08T05:08:17;14.40;;;7.85;;
77520;SDS011;66633;47.628;19.158;2023-09-08T05:10:43;13.70;;;8.75;;
77520;SDS011;66633;47.628;19.158;2023-09-08T05:13:09;12.32;;;8.00;;
77520;SDS011;66633;47.628;19.158;2023-09-08T05:15:35;13.80;;;7.53;;
77520;SDS011;66633;47.628;19.158;2023-09-08T05:18:00;12.10;;;8.18;;
77520;SDS011;66633;47.628;19.158;2023-09-08T05:20:25;11.38;;;7.10;;
77520;SDS011;66633;47.628;19.158;2023-09-08T05:22:51;11.43;;;7.50;;
77520;SDS011;66633;47.628;19.158;2023-09-08T05:25:16;11.45;;;7.38;;
77520;SDS011;66633;47.628;19.158;2023-09-08T05:27:42;10.55;;;6.95;;
77520;SDS011;66633;47.628;19.158;2023-09-08T05:30:08;11.82;;;6.93;;
77520;SDS011;66633;47.628;19.158;2023-09-08T05:32:34;12.50;;;7.65;;
77520;SDS011;66633;47.628;19.158;2023-09-08T05:34:59;12.10;;;7.78;;
77520;SDS011;66633;47.628;19.158;2023-09-08T05:37:25;14.05;;;7.38;;
77520;SDS011;66633;47.628;19.158;2023-09-08T05:39:50;13.07;;;7.53;;
77520;SDS011;66633;47.628;19.158;2023-09-08T05:42:15;12.65;;;7.75;;
77520;SDS011;66633;47.628;19.158;2023-09-08T05:44:41;14.63;;;8.00;;
77520;SDS011;66633;47.628;19.158;2023-09-08T05:47:06;15.75;;;7.82;;
77520;SDS011;66633;47.628;19.158;2023-09-08T05:49:31;11.75;;;6.78;;
77520;SDS011;66633;47.628;19.158;2023-09-08T05:51:57;11.75;;;7.68;;
77520;SDS011;66633;47.628;19.158;2023-09-08T05:54:22;12.75;;;7.70;;
77520;SDS011;66633;47.628;19.158;2023-09-08T05:56:48;14.88;;;6.90;;
77520;SDS011;66633;47.628;19.158;2023-09-08T05:59:13;13.48;;;7.82;;
77520;SDS011;66633;47.628;19.158;2023-09-08T06:01:38;12.30;;;7.93;;
77520;SDS011;66633;47.628;19.158;2023-09-08T06:04:04;14.20;;;8.48;;
77520;SDS011;66633;47.628;19.158;2023-09-08T06:06:30;16.30;;;7.20;;
77520;SDS011;66633;47.628;19.158;2023-09-08T06:08:55;10.95;;;7.07;;
77520;SDS011;66633;47.628;19.158;2023-09-08T06:11:20;13.45;;;7.60;;
77520;SDS011;66633;47.628;19.158;2023-09-08T06:13:46;13.32;;;7.25;;
77520;SDS011;66633;47.628;19.158;2023-09-08T06:16:12;10.82;;;7.20;;
77520;SDS011;66633;47.628;19.158;2023-09-08T06:18:37;11.43;;;7.30;;
77520;SDS011;66633;47.628;19.158;2023-09-08T06:21:06;12.43;;;7.47;;
77520;SDS011;66633;47.628;19.158;2023-09-08T06:23:32;11.80;;;7.60;;
77520;SDS011;66633;47.628;19.158;2023-09-08T06:25:59;13.52;;;7.80;;
77520;SDS011;66633;47.628;19.158;2023-09-08T06:28:25;12.05;;;6.90;;
77520;SDS011;66633;47.628;19.158;2023-09-08T06:30:51;11.80;;;7.22;;
77520;SDS011;66633;47.628;19.158;2023-09-08T06:33:16;12.65;;;8.25;;
77520;SDS011;66633;47.628;19.158;2023-09-08T06:35:42;13.55;;;8.00;;
77520;SDS011;66633;47.628;19.158;2023-09-08T06:38:07;11.82;;;7.85;;
77520;SDS011;66633;47.628;19.158;2023-09-08T06:40:32;14.20;;;8.38;;
77520;SDS011;66633;47.628;19.158;2023-09-08T06:42:58;12.02;;;8.07;;
77520;SDS011;66633;47.628;19.158;2023-09-08T06:45:23;12.48;;;7.60;;
77520;SDS011;66633;47.628;19.158;2023-09-08T06:47:49;12.68;;;7.90;;
77520;SDS011;66633;47.628;19.158;2023-09-08T06:50:16;14.05;;;7.70;;
77520;SDS011;66633;47.628;19.158;2023-09-08T06:52:46;12.10;;;7.80;;
77520;SDS011;66633;47.628;19.158;2023-09-08T06:55:13;14.45;;;7.72;;
77520;SDS011;66633;47.628;19.158;2023-09-08T06:57:43;11.27;;;8.05;;
77520;SDS011;66633;47.628;19.158;2023-09-08T07:00:09;11.95;;;7.70;;
77520;SDS011;66633;47.628;19.158;2023-09-08T07:02:36;15.95;;;7.65;;
77520;SDS011;66633;47.628;19.158;2023-09-08T07:05:02;9.73;;;7.55;;
77520;SDS011;66633;47.628;19.158;2023-09-08T07:07:33;13.95;;;7.60;;
77520;SDS011;66633;47.628;19.158;2023-09-08T07:10:02;12.80;;;8.15;;
77520;SDS011;66633;47.628;19.158;2023-09-08T07:12:28;12.57;;;8.43;;
77520;SDS011;66633;47.628;19.158;2023-09-08T07:14:54;11.52;;;7.82;;
77520;SDS011;66633;47.628;19.158;2023-09-08T07:17:19;11.32;;;7.57;;
77520;SDS011;66633;47.628;19.158;2023-09-08T07:19:45;12.00;;;7.28;;
77520;SDS011;66633;47.628;19.158;2023-09-08T07:22:10;12.68;;;8.18;;
77520;SDS011;66633;47.628;19.158;2023-09-08T07:24:35;12.80;;;8.52;;
77520;SDS011;66633;47.628;19.158;2023-09-08T07:27:01;12.90;;;7.43;;
77520;SDS011;66633;47.628;19.158;2023-09-08T07:29:27;10.65;;;6.80;;
77520;SDS011;66633;47.628;19.158;2023-09-08T07:31:53;12.85;;;7.85;;
77520;SDS011;66633;47.628;19.158;2023-09-08T07:34:18;15.70;;;7.57;;
77520;SDS011;66633;47.628;19.158;2023-09-08T07:36:43;14.20;;;7.63;;
77520;SDS011;66633;47.628;19.158;2023-09-08T07:39:09;10.23;;;7.28;;
77520;SDS011;66633;47.628;19.158;2023-09-08T07:41:34;11.00;;;7.97;;
77520;SDS011;66633;47.628;19.158;2023-09-08T07:44:00;12.40;;;8.27;;
77520;SDS011;66633;47.628;19.158;2023-09-08T07:46:25;10.55;;;6.78;;
77520;SDS011;66633;47.628;19.158;2023-09-08T07:48:51;11.70;;;8.32;;
77520;SDS011;66633;47.628;19.158;2023-09-08T07:51:17;10.80;;;7.78;;
77520;SDS011;66633;47.628;19.158;2023-09-08T07:53:42;10.82;;;7.78;;
77520;SDS011;66633;47.628;19.158;2023-09-08T07:56:08;11.75;;;7.80;;
77520;SDS011;66633;47.628;19.158;2023-09-08T07:58:33;11.05;;;7.47;;
77520;SDS011;66633;47.628;19.158;2023-09-08T08:00:59;11.57;;;7.13;;
77520;SDS011;66633;47.628;19.158;2023-09-08T08:03:24;11.10;;;7.35;;
77520;SDS011;66633;47.628;19.158;2023-09-08T08:05:50;11.00;;;7.90;;
77520;SDS011;66633;47.628;19.158;2023-09-08T08:18:21;11.93;;;7.68;;
77520;SDS011;66633;47.628;19.158;2023-09-08T08:20:46;11.27;;;7.57;;
77520;SDS011;66633;47.628;19.158;2023-09-08T08:23:12;11.32;;;7.22;;
77520;SDS011;66633;47.628;19.158;2023-09-08T08:25:37;10.68;;;7.20;;
77520;SDS011;66633;47.628;19.158;2023-09-08T08:28:02;9.00;;;7.25;;
77520;SDS011;66633;47.628;19.158;2023-09-08T08:30:28;11.23;;;7.53;;
77520;SDS011;66633;47.628;19.158;2023-09-08T08:32:54;9.85;;;7.22;;
77520;SDS011;66633;47.628;19.158;2023-09-08T08:35:19;11.43;;;7.55;;
77520;SDS011;66633;47.628;19.158;2023-09-08T08:37:45;10.20;;;8.15;;
77520;SDS011;66633;47.628;19.158;2023-09-08T08:40:11;13.52;;;7.97;;
77520;SDS011;66633;47.628;19.158;2023-09-08T08:42:37;9.85;;;8.25;;
77520;SDS011;66633;47.628;19.158;2023-09-08T08:45:04;12.23;;;7.57;;
77520;SDS011;66633;47.628;19.158;2023-09-08T08:47:29;10.55;;;8.13;;
77520;SDS011;66633;47.628;19.158;2023-09-08T08:49:56;12.93;;;8.25;;
77520;SDS011;66633;47.628;19.158;2023-09-08T08:52:26;11.80;;;7.65;;
77520;SDS011;66633;47.628;19.158;2023-09-08T08:54:52;11.95;;;7.68;;
77520;SDS011;66633;47.628;19.158;2023-09-08T08:57:18;12.45;;;7.88;;
77520;SDS011;66633;47.628;19.158;2023-09-08T08:59:44;10.63;;;7.47;;
77520;SDS011;66633;47.628;19.158;2023-09-08T09:02:11;11.25;;;7.47;;
77520;SDS011;66633;47.628;19.158;2023-09-08T09:04:37;10.57;;;7.32;;
77520;SDS011;66633;47.628;19.158;2023-09-08T09:07:03;16.95;;;8.15;;
77520;SDS011;66633;47.628;19.158;2023-09-08T09:09:31;10.77;;;8.23;;
77520;SDS011;66633;47.628;19.158;2023-09-08T09:11:57;10.07;;;7.20;;
77520;SDS011;66633;47.628;19.158;2023-09-08T09:14:23;10.25;;;7.15;;
77520;SDS011;66633;47.628;19.158;2023-09-08T09:16:48;12.48;;;7.68;;
77520;SDS011;66633;47.628;19.158;2023-09-08T09:19:23;11.00;;;7.13;;
77520;SDS011;66633;47.628;19.158;2023-09-08T09:21:56;11.77;;;7.43;;
77520;SDS011;66633;47.628;19.158;2023-09-08T09:26:59;11.05;;;7.07;;
77520;SDS011;66633;47.628;19.158;2023-09-08T09:29:26;12.20;;;7.38;;
77520;SDS011;66633;47.628;19.158;2023-09-08T09:31:57;12.55;;;7.45;;
77520;SDS011;66633;47.628;19.158;2023-09-08T09:34:33;15.23;;;8.20;;
77520;SDS011;66633;47.628;19.158;2023-09-08T09:36:59;11.93;;;6.80;;
77520;SDS011;66633;47.628;19.158;2023-09-08T09:39:25;13.00;;;6.93;;
77520;SDS011;66633;47.628;19.158;2023-09-08T09:41:55;11.50;;;7.38;;
77520;SDS011;66633;47.628;19.158;2023-09-08T09:44:22;9.88;;;6.80;;
77520;SDS011;66633;47.628;19.158;2023-09-08T09:46:48;11.70;;;7.40;;
77520;SDS011;66633;47.628;19.158;2023-09-08T09:49:16;11.45;;;7.25;;
77520;SDS011;66633;47.628;19.158;2023-09-08T09:51:53;11.27;;;6.70;;
77520;SDS011;66633;47.628;19.158;2023-09-08T09:54:18;10.40;;;7.35;;
77520;SDS011;66633;47.628;19.158;2023-09-08T09:56:44;10.10;;;7.45;;
77520;SDS011;66633;47.628;19.158;2023-09-08T09:59:11;11.30;;;7.75;;
77520;SDS011;66633;47.628;19.158;2023-09-08T10:01:38;11.18;;;7.60;;
77520;SDS011;66633;47.628;19.158;2023-09-08T10:04:05;10.85;;;7.57;;
77520;SDS011;66633;47.628;19.158;2023-09-08T10:06:32;12.32;;;7.53;;
77520;SDS011;66633;47.628;19.158;2023-09-08T10:09:02;11.90;;;7.03;;
77520;SDS011;66633;47.628;19.158;2023-09-08T10:11:34;9.00;;;5.93;;
77520;SDS011;66633;47.628;19.158;2023-09-08T10:14:03;11.85;;;7.15;;
77520;SDS011;66633;47.628;19.158;2023-09-08T10:16:34;10.60;;;7.18;;
77520;SDS011;66633;47.628;19.158;2023-09-08T10:19:01;9.65;;;6.88;;
77520;SDS011;66633;47.628;19.158;2023-09-08T10:21:33;8.95;;;6.57;;
77520;SDS011;66633;47.628;19.158;2023-09-08T10:24:14;9.85;;;6.82;;
77520;SDS011;66633;47.628;19.158;2023-09-08T10:26:47;10.23;;;6.45;;
77520;SDS011;66633;47.628;19.158;2023-09-08T10:29:21;9.07;;;6.07;;
77520;SDS011;66633;47.628;19.158;2023-09-08T10:31:48;10.05;;;6.38;;
77520;SDS011;66633;47.628;19.158;2023-09-08T10:34:13;8.82;;;6.15;;
77520;SDS011;66633;47.628;19.158;2023-09-08T10:36:40;10.10;;;6.47;;
77520;SDS011;66633;47.628;19.158;2023-09-08T10:47:23;8.80;;;5.93;;
77520;SDS011;66633;47.628;19.158;2023-09-08T10:50:07;8.38;;;5.70;;
77520;SDS011;66633;47.628;19.158;2023-09-08T10:52:41;8.88;;;5.85;;
77520;SDS011;66633;47.628;19.158;2023-09-08T10:55:06;10.98;;;7.38;;
77520;SDS011;66633;47.628;19.158;2023-09-08T10:57:32;7.05;;;5.72;;
77520;SDS011;66633;47.628;19.158;2023-09-08T11:00:00;9.68;;;6.38;;
77520;SDS011;66633;47.628;19.158;2023-09-08T11:05:07;8.65;;;5.93;;
77520;SDS011;66633;47.628;19.158;2023-09-08T11:07:35;10.10;;;6.10;;
77520;SDS011;66633;47.628;19.158;2023-09-08T11:10:01;8.88;;;6.70;;
77520;SDS011;66633;47.628;19.158;2023-09-08T11:12:27;11.77;;;6.43;;
77520;SDS011;66633;47.628;19.158;2023-09-08T11:14:53;9.70;;;6.30;;
77520;SDS011;66633;47.628;19.158;2023-09-08T11:17:19;8.90;;;6.43;;
77520;SDS011;66633;47.628;19.158;2023-09-08T11:19:45;8.05;;;6.15;;
77520;SDS011;66633;47.628;19.158;2023-09-08T11:22:15;11.18;;;6.18;;
77520;SDS011;66633;47.628;19.158;2023-09-08T11:24:42;9.40;;;6.28;;
77520;SDS011;66633;47.628;19.158;2023-09-08T11:27:08;9.52;;;5.80;;
77520;SDS011;66633;47.628;19.158;2023-09-08T11:29:34;8.02;;;5.90;;
77520;SDS011;66633;47.628;19.158;2023-09-08T11:31:59;9.95;;;5.63;;
77520;SDS011;66633;47.628;19.158;2023-09-08T11:34:25;10.10;;;5.70;;
77520;SDS011;66633;47.628;19.158;2023-09-08T11:36:50;7.65;;;4.97;;
77520;SDS011;66633;47.628;19.158;2023-09-08T11:39:17;7.63;;;5.28;;
77520;SDS011;66633;47.628;19.158;2023-09-08T11:41:43;6.50;;;4.50;;
77520;SDS011;66633;47.628;19.158;2023-09-08T11:44:08;9.50;;;5.88;;
77520;SDS011;66633;47.628;19.158;2023-09-08T11:46:34;8.45;;;5.53;;
77520;SDS011;66633;47.628;19.158;2023-09-08T11:49:00;7.63;;;5.60;;
77520;SDS011;66633;47.628;19.158;2023-09-08T11:51:25;11.55;;;5.47;;
77520;SDS011;66633;47.628;19.158;2023-09-08T11:53:51;7.10;;;5.28;;
77520;SDS011;66633;47.628;19.158;2023-09-08T11:56:17;8.05;;;6.32;;
77520;SDS011;66633;47.628;19.158;2023-09-08T11:58:43;8.43;;;6.05;;
77520;SDS011;66633;47.628;19.158;2023-09-08T12:01:09;7.60;;;5.95;;
77520;SDS011;66633;47.628;19.158;2023-09-08T12:03:42;7.82;;;6.30;;
77520;SDS011;66633;47.628;19.158;2023-09-08T12:06:16;8.48;;;5.60;;
77520;SDS011;66633;47.628;19.158;2023-09-08T12:08:42;9.15;;;6.20;;
77520;SDS011;66633;47.628;19.158;2023-09-08T12:11:09;8.95;;;6.20;;
77520;SDS011;66633;47.628;19.158;2023-09-08T12:13:35;8.13;;;6.38;;
77520;SDS011;66633;47.628;19.158;2023-09-08T12:16:00;7.93;;;6.07;;
77520;SDS011;66633;47.628;19.158;2023-09-08T12:18:38;8.20;;;6.55;;
77520;SDS011;66633;47.628;19.158;2023-09-08T12:21:05;9.50;;;5.45;;
77520;SDS011;66633;47.628;19.158;2023-09-08T12:23:31;8.73;;;5.70;;
77520;SDS011;66633;47.628;19.158;2023-09-08T12:25:56;8.32;;;6.53;;
77520;SDS011;66633;47.628;19.158;2023-09-08T12:28:22;8.15;;;6.45;;
77520;SDS011;66633;47.628;19.158;2023-09-08T12:30:49;8.02;;;6.18;;
77520;SDS011;66633;47.628;19.158;2023-09-08T12:33:15;8.55;;;6.60;;
77520;SDS011;66633;47.628;19.158;2023-09-08T12:35:44;8.00;;;6.15;;
77520;SDS011;66633;47.628;19.158;2023-09-08T12:38:11;7.90;;;5.82;;
77520;SDS011;66633;47.628;19.158;2023-09-08T12:40:38;13.68;;;6.15;;
77520;SDS011;66633;47.628;19.158;2023-09-08T12:43:04;9.68;;;6.28;;
77520;SDS011;66633;47.628;19.158;2023-09-08T12:45:30;7.18;;;5.38;;
77520;SDS011;66633;47.628;19.158;2023-09-08T12:47:58;7.57;;;5.55;;
77520;SDS011;66633;47.628;19.158;2023-09-08T12:50:25;7.78;;;5.90;;
77520;SDS011;66633;47.628;19.158;2023-09-08T12:52:50;7.70;;;5.93;;
77520;SDS011;66633;47.628;19.158;2023-09-08T12:55:16;8.18;;;5.45;;
77520;SDS011;66633;47.628;19.158;2023-09-08T12:57:41;8.82;;;5.68;;
77520;SDS011;66633;47.628;19.158;2023-09-08T13:00:07;7.53;;;5.60;;
77520;SDS011;66633;47.628;19.158;2023-09-08T13:02:33;8.10;;;5.00;;
77520;SDS011;66633;47.628;19.158;2023-09-08T13:04:59;10.25;;;6.47;;
77520;SDS011;66633;47.628;19.158;2023-09-08T13:07:26;9.23;;;6.45;;
77520;SDS011;66633;47.628;19.158;2023-09-08T13:09:52;7.18;;;5.70;;
77520;SDS011;66633;47.628;19.158;2023-09-08T13:12:17;9.85;;;5.95;;
77520;SDS011;66633;47.628;19.158;2023-09-08T13:14:43;8.23;;;6.05;;
77520;SDS011;66633;47.628;19.158;2023-09-08T13:17:09;11.57;;;6.03;;
77520;SDS011;66633;47.628;19.158;2023-09-08T13:19:36;8.93;;;6.25;;
77520;SDS011;66633;47.628;19.158;2023-09-08T13:22:03;8.35;;;5.35;;
77520;SDS011;66633;47.628;19.158;2023-09-08T13:24:29;7.47;;;5.38;;
77520;SDS011;66633;47.628;19.158;2023-09-08T13:26:55;8.18;;;5.70;;
77520;SDS011;66633;47.628;19.158;2023-09-08T13:29:21;7.97;;;5.97;;
77520;SDS011;66633;47.628;19.158;2023-09-08T13:31:47;8.73;;;5.30;;
77520;SDS011;66633;47.628;19.158;2023-09-08T13:34:13;7.90;;;5.57;;
77520;SDS011;66633;47.628;19.158;2023-09-08T13:36:39;7.50;;;4.90;;
77520;SDS011;66633;47.628;19.158;2023-09-08T13:39:04;8.00;;;5.80;;
77520;SDS011;66633;47.628;19.158;2023-09-08T13:41:45;8.48;;;5.20;;
77520;SDS011;66633;47.628;19.158;2023-09-08T13:44:16;8.02;;;5.32;;
77520;SDS011;66633;47.628;19.158;2023-09-08T13:46:43;7.40;;;5.63;;
77520;SDS011;66633;47.628;19.158;2023-09-08T13:49:09;7.30;;;5.53;;
77520;SDS011;66633;47.628;19.158;2023-09-08T13:51:35;8.02;;;5.82;;
77520;SDS011;66633;47.628;19.158;2023-09-08T13:54:01;7.47;;;4.97;;
77520;SDS011;66633;47.628;19.158;2023-09-08T13:56:27;7.55;;;6.05;;
77520;SDS011;66633;47.628;19.158;2023-09-08T13:58:52;9.43;;;5.15;;
77520;SDS011;66633;47.628;19.158;2023-09-08T14:01:18;7.78;;;5.10;;
77520;SDS011;66633;47.628;19.158;2023-09-08T14:03:43;7.30;;;5.45;;
77520;SDS011;66633;47.628;19.158;2023-09-08T14:06:09;7.88;;;5.60;;
77520;SDS011;66633;47.628;19.158;2023-09-08T14:08:34;9.15;;;5.45;;
77520;SDS011;66633;47.628;19.158;2023-09-08T14:11:00;8.57;;;5.30;;
77520;SDS011;66633;47.628;19.158;2023-09-08T14:13:26;7.15;;;5.15;;
77520;SDS011;66633;47.628;19.158;2023-09-08T14:15:51;8.45;;;5.50;;
77520;SDS011;66633;47.628;19.158;2023-09-08T14:18:17;8.25;;;5.25;;
77520;SDS011;66633;47.628;19.158;2023-09-08T14:20:43;7.55;;;5.63;;
77520;SDS011;66633;47.628;19.158;2023-09-08T14:23:08;7.00;;;4.72;;
77520;SDS011;66633;47.628;19.158;2023-09-08T14:25:35;7.55;;;5.53;;
77520;SDS011;66633;47.628;19.158;2023-09-08T14:28:01;6.82;;;4.93;;
77520;SDS011;66633;47.628;19.158;2023-09-08T14:30:29;7.10;;;5.63;;
77520;SDS011;66633;47.628;19.158;2023-09-08T14:32:55;6.55;;;4.53;;
77520;SDS011;66633;47.628;19.158;2023-09-08T14:35:21;9.27;;;5.30;;
77520;SDS011;66633;47.628;19.158;2023-09-08T14:37:47;7.50;;;5.43;;
77520;SDS011;66633;47.628;19.158;2023-09-08T14:40:14;7.38;;;4.75;;
77520;SDS011;66633;47.628;19.158;2023-09-08T14:42:40;8.80;;;6.00;;
77520;SDS011;66633;47.628;19.158;2023-09-08T14:45:06;10.65;;;5.15;;
77520;SDS011;66633;47.628;19.158;2023-09-08T14:47:32;8.10;;;5.25;;
77520;SDS011;66633;47.628;19.158;2023-09-08T14:49:58;7.75;;;6.00;;